sensor_id;sensor_type;location;lat;lon;timestamp;temperature;humidity
40756;DHT22;26461;45.630;9.418;2024-01-15T00:01:03;4.10;86.20
40756;DHT22;26461;45.630;9.418;2024-01-15T00:04:13;4.10;86.60
40756;DHT22;26461;45.630;9.418;2024-01-15T00:07:22;4.10;86.60
40756;DHT22;26461;45.630;9.418;2024-01-15T00:10:33;4.00;86.80
40756;DHT22;26461;45.630;9.418;2024-01-15T00:13:43;4.10;87.00
40756;DHT22;26461;45.630;9.418;2024-01-15T00:16:53;4.10;87.30
40756;DHT22;26461;45.630;9.418;2024-01-15T00:20:05;4.20;87.30
40756;DHT22;26461;45.630;9.418;2024-01-15T00:23:15;4.00;87.20
40756;DHT22;26461;45.630;9.418;2024-01-15T00:26:25;4.10;87.20
40756;DHT22;26461;45.630;9.418;2024-01-15T00:29:35;4.00;87.10
40756;DHT22;26461;45.630;9.418;2024-01-15T00:32:45;4.00;87.10
40756;DHT22;26461;45.630;9.418;2024-01-15T00:35:58;4.00;87.20
40756;DHT22;26461;45.630;9.418;2024-01-15T00:39:08;4.00;87.40
40756;DHT22;26461;45.630;9.418;2024-01-15T00:42:20;4.00;87.60
40756;DHT22;26461;45.630;9.418;2024-01-15T00:45:30;4.00;87.60
40756;DHT22;26461;45.630;9.418;2024-01-15T00:48:40;4.00;87.50
40756;DHT22;26461;45.630;9.418;2024-01-15T00:51:47;3.90;87.60
40756;DHT22;26461;45.630;9.418;2024-01-15T00:54:57;3.90;87.80
40756;DHT22;26461;45.630;9.418;2024-01-15T00:58:07;3.90;87.90
40756;DHT22;26461;45.630;9.418;2024-01-15T01:01:12;4.00;87.90
40756;DHT22;26461;45.630;9.418;2024-01-15T01:04:22;4.00;87.80
40756;DHT22;26461;45.630;9.418;2024-01-15T01:07:32;4.00;87.90
40756;DHT22;26461;45.630;9.418;2024-01-15T01:10:42;4.00;87.90
40756;DHT22;26461;45.630;9.418;2024-01-15T01:13:53;4.00;87.90
40756;DHT22;26461;45.630;9.418;2024-01-15T01:17:05;4.00;88.00
40756;DHT22;26461;45.630;9.418;2024-01-15T01:20:16;4.10;88.10
40756;DHT22;26461;45.630;9.418;2024-01-15T01:23:26;4.00;87.90
40756;DHT22;26461;45.630;9.418;2024-01-15T01:26:36;4.00;87.70
40756;DHT22;26461;45.630;9.418;2024-01-15T01:29:46;4.00;87.50
40756;DHT22;26461;45.630;9.418;2024-01-15T01:32:51;4.10;87.70
40756;DHT22;26461;45.630;9.418;2024-01-15T01:36:07;4.00;87.70
40756;DHT22;26461;45.630;9.418;2024-01-15T01:39:17;4.00;87.60
40756;DHT22;26461;45.630;9.418;2024-01-15T01:42:27;4.00;87.60
40756;DHT22;26461;45.630;9.418;2024-01-15T01:45:37;4.00;87.60
40756;DHT22;26461;45.630;9.418;2024-01-15T01:48:48;4.00;87.50
40756;DHT22;26461;45.630;9.418;2024-01-15T01:52:02;3.90;87.20
40756;DHT22;26461;45.630;9.418;2024-01-15T01:55:09;3.90;87.30
40756;DHT22;26461;45.630;9.418;2024-01-15T01:58:16;3.90;87.60
40756;DHT22;26461;45.630;9.418;2024-01-15T02:01:26;3.90;87.80
40756;DHT22;26461;45.630;9.418;2024-01-15T02:04:36;3.90;87.90
40756;DHT22;26461;45.630;9.418;2024-01-15T02:07:47;3.90;87.80
40756;DHT22;26461;45.630;9.418;2024-01-15T02:10:58;3.90;87.70
40756;DHT22;26461;45.630;9.418;2024-01-15T02:14:09;3.90;87.70
40756;DHT22;26461;45.630;9.418;2024-01-15T02:17:14;3.90;87.70
40756;DHT22;26461;45.630;9.418;2024-01-15T02:20:25;3.90;87.80
40756;DHT22;26461;45.630;9.418;2024-01-15T02:23:55;3.90;87.80
40756;DHT22;26461;45.630;9.418;2024-01-15T02:27:06;3.90;87.80
40756;DHT22;26461;45.630;9.418;2024-01-15T02:30:17;3.90;87.80
40756;DHT22;26461;45.630;9.418;2024-01-15T02:33:26;3.80;87.70
40756;DHT22;26461;45.630;9.418;2024-01-15T02:36:31;3.80;87.20
40756;DHT22;26461;45.630;9.418;2024-01-15T02:39:41;3.80;87.20
40756;DHT22;26461;45.630;9.418;2024-01-15T02:42:51;3.80;87.30
40756;DHT22;26461;45.630;9.418;2024-01-15T02:46:01;3.80;87.50
40756;DHT22;26461;45.630;9.418;2024-01-15T02:49:06;3.80;87.50
40756;DHT22;26461;45.630;9.418;2024-01-15T02:52:16;3.90;87.40
40756;DHT22;26461;45.630;9.418;2024-01-15T02:55:26;3.90;87.40
40756;DHT22;26461;45.630;9.418;2024-01-15T02:58:34;3.90;87.10
40756;DHT22;26461;45.630;9.418;2024-01-15T03:01:44;3.90;87.00
40756;DHT22;26461;45.630;9.418;2024-01-15T03:04:49;3.80;86.90
40756;DHT22;26461;45.630;9.418;2024-01-15T03:07:59;3.80;86.80
40756;DHT22;26461;45.630;9.418;2024-01-15T03:11:09;3.80;86.90
40756;DHT22;26461;45.630;9.418;2024-01-15T03:14:19;3.80;86.90
40756;DHT22;26461;45.630;9.418;2024-01-15T03:17:24;3.80;86.90
40756;DHT22;26461;45.630;9.418;2024-01-15T03:20:34;3.80;87.00
40756;DHT22;26461;45.630;9.418;2024-01-15T03:23:39;3.80;87.20
40756;DHT22;26461;45.630;9.418;2024-01-15T03:26:49;3.80;87.20
40756;DHT22;26461;45.630;9.418;2024-01-15T03:29:54;3.70;87.40
40756;DHT22;26461;45.630;9.418;2024-01-15T03:33:04;3.80;87.40
40756;DHT22;26461;45.630;9.418;2024-01-15T03:36:09;3.70;87.40
40756;DHT22;26461;45.630;9.418;2024-01-15T03:39:20;3.80;87.40
40756;DHT22;26461;45.630;9.418;2024-01-15T03:42:24;3.80;87.20
40756;DHT22;26461;45.630;9.418;2024-01-15T03:45:29;3.80;87.00
40756;DHT22;26461;45.630;9.418;2024-01-15T03:48:34;3.70;86.80
40756;DHT22;26461;45.630;9.418;2024-01-15T03:51:44;3.70;86.80
40756;DHT22;26461;45.630;9.418;2024-01-15T03:54:55;3.70;86.90
40756;DHT22;26461;45.630;9.418;2024-01-15T03:58:00;3.70;87.10
40756;DHT22;26461;45.630;9.418;2024-01-15T04:01:10;3.60;86.70
40756;DHT22;26461;45.630;9.418;2024-01-15T04:04:15;3.60;86.60
40756;DHT22;26461;45.630;9.418;2024-01-15T04:07:25;3.60;87.00
40756;DHT22;26461;45.630;9.418;2024-01-15T04:10:35;3.50;87.20
40756;DHT22;26461;45.630;9.418;2024-01-15T04:13:40;3.50;87.40
40756;DHT22;26461;45.630;9.418;2024-01-15T04:16:50;3.50;87.40
40756;DHT22;26461;45.630;9.418;2024-01-15T04:19:59;3.50;87.40
40756;DHT22;26461;45.630;9.418;2024-01-15T04:23:09;3.50;87.50
40756;DHT22;26461;45.630;9.418;2024-01-15T04:26:14;3.50;87.50
40756;DHT22;26461;45.630;9.418;2024-01-15T04:29:19;3.50;87.40
40756;DHT22;26461;45.630;9.418;2024-01-15T04:32:24;3.40;87.50
40756;DHT22;26461;45.630;9.418;2024-01-15T04:35:34;3.40;87.50
40756;DHT22;26461;45.630;9.418;2024-01-15T04:38:39;3.40;87.60
40756;DHT22;26461;45.630;9.418;2024-01-15T04:41:49;3.40;87.50
40756;DHT22;26461;45.630;9.418;2024-01-15T04:44:54;3.40;87.40
40756;DHT22;26461;45.630;9.418;2024-01-15T04:47:59;3.40;86.90
40756;DHT22;26461;45.630;9.418;2024-01-15T04:51:09;3.40;87.80
40756;DHT22;26461;45.630;9.418;2024-01-15T04:54:14;3.40;87.10
40756;DHT22;26461;45.630;9.418;2024-01-15T04:57:22;3.40;87.30
40756;DHT22;26461;45.630;9.418;2024-01-15T05:00:32;3.40;87.30
40756;DHT22;26461;45.630;9.418;2024-01-15T05:03:42;3.40;87.10
40756;DHT22;26461;45.630;9.418;2024-01-15T05:06:52;3.30;86.80
40756;DHT22;26461;45.630;9.418;2024-01-15T05:10:02;3.30;86.70
40756;DHT22;26461;45.630;9.418;2024-01-15T05:13:08;3.20;87.20
40756;DHT22;26461;45.630;9.418;2024-01-15T05:16:18;3.20;87.50
40756;DHT22;26461;45.630;9.418;2024-01-15T05:19:22;3.20;87.80
40756;DHT22;26461;45.630;9.418;2024-01-15T05:22:32;3.30;87.90
40756;DHT22;26461;45.630;9.418;2024-01-15T05:25:42;3.20;87.60
40756;DHT22;26461;45.630;9.418;2024-01-15T05:28:52;3.20;87.30
40756;DHT22;26461;45.630;9.418;2024-01-15T05:32:02;3.10;87.80
40756;DHT22;26461;45.630;9.418;2024-01-15T05:35:07;3.20;88.20
40756;DHT22;26461;45.630;9.418;2024-01-15T05:38:17;3.20;88.30
40756;DHT22;26461;45.630;9.418;2024-01-15T05:41:27;3.20;88.20
40756;DHT22;26461;45.630;9.418;2024-01-15T05:44:32;3.20;88.10
40756;DHT22;26461;45.630;9.418;2024-01-15T05:47:37;3.20;88.00
40756;DHT22;26461;45.630;9.418;2024-01-15T05:50:47;3.20;88.10
40756;DHT22;26461;45.630;9.418;2024-01-15T05:53:52;3.20;88.10
40756;DHT22;26461;45.630;9.418;2024-01-15T05:56:57;3.10;88.10
40756;DHT22;26461;45.630;9.418;2024-01-15T06:00:07;3.10;88.30
40756;DHT22;26461;45.630;9.418;2024-01-15T06:03:18;3.20;88.20
40756;DHT22;26461;45.630;9.418;2024-01-15T06:06:28;3.20;88.20
40756;DHT22;26461;45.630;9.418;2024-01-15T06:09:33;3.20;88.30
40756;DHT22;26461;45.630;9.418;2024-01-15T06:12:43;3.20;88.10
40756;DHT22;26461;45.630;9.418;2024-01-15T06:15:53;3.20;88.00
40756;DHT22;26461;45.630;9.418;2024-01-15T06:19:03;3.20;88.00
40756;DHT22;26461;45.630;9.418;2024-01-15T06:22:13;3.20;88.00
40756;DHT22;26461;45.630;9.418;2024-01-15T06:25:18;3.20;88.00
40756;DHT22;26461;45.630;9.418;2024-01-15T06:28:23;3.20;87.90
40756;DHT22;26461;45.630;9.418;2024-01-15T06:31:33;3.20;87.90
40756;DHT22;26461;45.630;9.418;2024-01-15T06:34:37;3.20;88.00
40756;DHT22;26461;45.630;9.418;2024-01-15T06:37:42;3.20;87.90
40756;DHT22;26461;45.630;9.418;2024-01-15T06:40:47;3.20;87.70
40756;DHT22;26461;45.630;9.418;2024-01-15T06:43:53;3.20;87.50
40756;DHT22;26461;45.630;9.418;2024-01-15T06:47:03;3.20;87.40
40756;DHT22;26461;45.630;9.418;2024-01-15T06:50:13;3.30;87.20
40756;DHT22;26461;45.630;9.418;2024-01-15T06:53:22;3.30;87.00
40756;DHT22;26461;45.630;9.418;2024-01-15T06:56:32;3.30;87.20
40756;DHT22;26461;45.630;9.418;2024-01-15T06:59:43;3.20;87.80
40756;DHT22;26461;45.630;9.418;2024-01-15T07:02:48;3.20;88.70
40756;DHT22;26461;45.630;9.418;2024-01-15T07:05:58;3.30;88.00
40756;DHT22;26461;45.630;9.418;2024-01-15T07:09:03;3.20;87.00
40756;DHT22;26461;45.630;9.418;2024-01-15T07:12:13;3.10;86.80
40756;DHT22;26461;45.630;9.418;2024-01-15T07:15:18;3.10;87.00
40756;DHT22;26461;45.630;9.418;2024-01-15T07:18:28;3.10;86.70
40756;DHT22;26461;45.630;9.418;2024-01-15T07:21:38;3.10;86.70
40756;DHT22;26461;45.630;9.418;2024-01-15T07:24:44;3.00;86.60
40756;DHT22;26461;45.630;9.418;2024-01-15T07:27:55;3.00;86.80
40756;DHT22;26461;45.630;9.418;2024-01-15T07:31:05;3.00;86.80
40756;DHT22;26461;45.630;9.418;2024-01-15T07:34:16;3.00;86.70
40756;DHT22;26461;45.630;9.418;2024-01-15T07:37:27;3.00;86.20
40756;DHT22;26461;45.630;9.418;2024-01-15T07:40:37;2.90;86.20
40756;DHT22;26461;45.630;9.418;2024-01-15T07:43:42;2.90;86.40
40756;DHT22;26461;45.630;9.418;2024-01-15T07:46:48;2.90;86.60
40756;DHT22;26461;45.630;9.418;2024-01-15T07:49:58;2.90;86.70
40756;DHT22;26461;45.630;9.418;2024-01-15T07:53:08;2.90;86.60
40756;DHT22;26461;45.630;9.418;2024-01-15T07:56:13;2.90;86.60
40756;DHT22;26461;45.630;9.418;2024-01-15T07:59:18;2.90;86.60
40756;DHT22;26461;45.630;9.418;2024-01-15T08:02:28;2.90;87.20
40756;DHT22;26461;45.630;9.418;2024-01-15T08:05:38;2.80;87.50
40756;DHT22;26461;45.630;9.418;2024-01-15T08:08:43;2.80;88.00
40756;DHT22;26461;45.630;9.418;2024-01-15T08:11:53;2.70;88.20
40756;DHT22;26461;45.630;9.418;2024-01-15T08:15:04;2.70;88.50
40756;DHT22;26461;45.630;9.418;2024-01-15T08:18:15;2.70;88.70
40756;DHT22;26461;45.630;9.418;2024-01-15T08:21:25;2.70;89.00
40756;DHT22;26461;45.630;9.418;2024-01-15T08:24:35;2.80;89.40
40756;DHT22;26461;45.630;9.418;2024-01-15T08:27:46;2.80;89.60
40756;DHT22;26461;45.630;9.418;2024-01-15T08:30:50;2.80;90.00
40756;DHT22;26461;45.630;9.418;2024-01-15T08:33:56;2.90;90.00
40756;DHT22;26461;45.630;9.418;2024-01-15T08:37:00;2.90;90.00
40756;DHT22;26461;45.630;9.418;2024-01-15T08:40:12;3.00;90.00
40756;DHT22;26461;45.630;9.418;2024-01-15T08:43:17;3.00;89.80
40756;DHT22;26461;45.630;9.418;2024-01-15T08:46:22;3.10;89.70
40756;DHT22;26461;45.630;9.418;2024-01-15T08:49:28;3.10;89.80
40756;DHT22;26461;45.630;9.418;2024-01-15T08:52:33;3.10;89.60
40756;DHT22;26461;45.630;9.418;2024-01-15T08:56:02;3.10;89.50
40756;DHT22;26461;45.630;9.418;2024-01-15T08:59:07;3.20;89.70
40756;DHT22;26461;45.630;9.418;2024-01-15T09:02:17;3.20;89.60
40756;DHT22;26461;45.630;9.418;2024-01-15T09:05:21;3.20;89.40
40756;DHT22;26461;45.630;9.418;2024-01-15T09:08:31;3.30;89.70
40756;DHT22;26461;45.630;9.418;2024-01-15T09:11:36;3.30;89.60
40756;DHT22;26461;45.630;9.418;2024-01-15T09:14:41;3.40;89.50
40756;DHT22;26461;45.630;9.418;2024-01-15T09:17:46;3.40;89.50
40756;DHT22;26461;45.630;9.418;2024-01-15T09:20:56;3.50;89.30
40756;DHT22;26461;45.630;9.418;2024-01-15T09:24:01;3.50;89.20
40756;DHT22;26461;45.630;9.418;2024-01-15T09:27:12;3.60;89.40
40756;DHT22;26461;45.630;9.418;2024-01-15T09:30:22;3.60;89.10
40756;DHT22;26461;45.630;9.418;2024-01-15T09:33:33;3.60;89.00
40756;DHT22;26461;45.630;9.418;2024-01-15T09:36:41;3.60;88.80
40756;DHT22;26461;45.630;9.418;2024-01-15T09:39:47;3.70;88.90
40756;DHT22;26461;45.630;9.418;2024-01-15T09:42:53;3.70;89.00
40756;DHT22;26461;45.630;9.418;2024-01-15T09:45:59;3.70;88.90
40756;DHT22;26461;45.630;9.418;2024-01-15T09:49:09;3.80;89.10
40756;DHT22;26461;45.630;9.418;2024-01-15T09:52:20;3.80;89.10
40756;DHT22;26461;45.630;9.418;2024-01-15T09:55:26;3.90;88.80
40756;DHT22;26461;45.630;9.418;2024-01-15T09:58:41;4.00;88.80
40756;DHT22;26461;45.630;9.418;2024-01-15T10:01:47;4.00;88.70
40756;DHT22;26461;45.630;9.418;2024-01-15T10:04:55;4.10;88.60
40756;DHT22;26461;45.630;9.418;2024-01-15T10:08:05;4.10;88.50
40756;DHT22;26461;45.630;9.418;2024-01-15T10:11:17;4.20;88.50
40756;DHT22;26461;45.630;9.418;2024-01-15T10:14:22;4.20;88.30
40756;DHT22;26461;45.630;9.418;2024-01-15T10:17:27;4.30;88.20
40756;DHT22;26461;45.630;9.418;2024-01-15T10:20:37;4.40;88.20
40756;DHT22;26461;45.630;9.418;2024-01-15T10:23:47;4.40;88.00
40756;DHT22;26461;45.630;9.418;2024-01-15T10:27:04;4.50;87.90
40756;DHT22;26461;45.630;9.418;2024-01-15T10:30:15;4.50;87.50
40756;DHT22;26461;45.630;9.418;2024-01-15T10:33:22;4.60;88.10
40756;DHT22;26461;45.630;9.418;2024-01-15T10:36:30;4.60;87.30
40756;DHT22;26461;45.630;9.418;2024-01-15T10:39:40;4.70;87.20
40756;DHT22;26461;45.630;9.418;2024-01-15T10:42:51;4.70;87.00
40756;DHT22;26461;45.630;9.418;2024-01-15T10:45:57;4.80;86.90
40756;DHT22;26461;45.630;9.418;2024-01-15T10:49:02;4.80;86.70
40756;DHT22;26461;45.630;9.418;2024-01-15T10:52:09;4.90;86.50
40756;DHT22;26461;45.630;9.418;2024-01-15T10:55:15;4.90;86.10
40756;DHT22;26461;45.630;9.418;2024-01-15T10:58:21;4.90;85.90
40756;DHT22;26461;45.630;9.418;2024-01-15T11:01:30;5.00;85.70
40756;DHT22;26461;45.630;9.418;2024-01-15T11:04:41;5.00;85.50
40756;DHT22;26461;45.630;9.418;2024-01-15T11:07:46;5.10;85.50
40756;DHT22;26461;45.630;9.418;2024-01-15T11:10:57;5.10;85.30
40756;DHT22;26461;45.630;9.418;2024-01-15T11:14:07;5.20;85.30
40756;DHT22;26461;45.630;9.418;2024-01-15T11:17:14;5.20;85.20
40756;DHT22;26461;45.630;9.418;2024-01-15T11:20:19;5.30;85.20
40756;DHT22;26461;45.630;9.418;2024-01-15T11:23:45;5.30;84.80
40756;DHT22;26461;45.630;9.418;2024-01-15T11:26:51;5.40;84.60
40756;DHT22;26461;45.630;9.418;2024-01-15T11:30:03;5.40;84.50
40756;DHT22;26461;45.630;9.418;2024-01-15T11:33:32;5.50;84.60
40756;DHT22;26461;45.630;9.418;2024-01-15T11:37:01;5.60;84.40
40756;DHT22;26461;45.630;9.418;2024-01-15T11:40:12;5.60;84.00
40756;DHT22;26461;45.630;9.418;2024-01-15T11:43:19;5.70;83.90
40756;DHT22;26461;45.630;9.418;2024-01-15T11:46:31;5.80;83.60
40756;DHT22;26461;45.630;9.418;2024-01-15T11:49:59;5.80;83.40
40756;DHT22;26461;45.630;9.418;2024-01-15T11:56:22;5.90;83.00
40756;DHT22;26461;45.630;9.418;2024-01-15T11:59:28;6.00;82.90
40756;DHT22;26461;45.630;9.418;2024-01-15T12:02:43;6.10;82.70
40756;DHT22;26461;45.630;9.418;2024-01-15T12:05:49;6.10;82.60
40756;DHT22;26461;45.630;9.418;2024-01-15T12:09:08;6.20;82.60
40756;DHT22;26461;45.630;9.418;2024-01-15T12:15:54;6.40;82.00
40756;DHT22;26461;45.630;9.418;2024-01-15T12:19:06;6.50;81.70
40756;DHT22;26461;45.630;9.418;2024-01-15T12:22:11;6.50;81.50
40756;DHT22;26461;45.630;9.418;2024-01-15T12:25:23;6.60;81.40
40756;DHT22;26461;45.630;9.418;2024-01-15T12:28:33;6.70;81.20
40756;DHT22;26461;45.630;9.418;2024-01-15T12:31:38;6.80;81.20
40756;DHT22;26461;45.630;9.418;2024-01-15T12:34:43;7.00;80.70
40756;DHT22;26461;45.630;9.418;2024-01-15T12:37:54;6.90;80.50
40756;DHT22;26461;45.630;9.418;2024-01-15T12:41:05;7.00;80.10
40756;DHT22;26461;45.630;9.418;2024-01-15T12:44:11;7.10;80.00
40756;DHT22;26461;45.630;9.418;2024-01-15T12:47:22;7.20;79.70
40756;DHT22;26461;45.630;9.418;2024-01-15T12:50:33;7.20;79.20
40756;DHT22;26461;45.630;9.418;2024-01-15T12:53:44;7.30;79.00
40756;DHT22;26461;45.630;9.418;2024-01-15T12:56:50;7.40;78.80
40756;DHT22;26461;45.630;9.418;2024-01-15T13:00:01;7.50;78.50
40756;DHT22;26461;45.630;9.418;2024-01-15T13:03:07;7.60;78.10
40756;DHT22;26461;45.630;9.418;2024-01-15T13:06:18;7.60;77.80
40756;DHT22;26461;45.630;9.418;2024-01-15T13:09:24;7.70;77.40
40756;DHT22;26461;45.630;9.418;2024-01-15T13:12:35;7.80;77.10
40756;DHT22;26461;45.630;9.418;2024-01-15T13:15:40;7.80;77.00
40756;DHT22;26461;45.630;9.418;2024-01-15T13:18:51;7.90;76.00
40756;DHT22;26461;45.630;9.418;2024-01-15T13:22:02;8.00;75.90
40756;DHT22;26461;45.630;9.418;2024-01-15T13:25:11;8.10;75.30
40756;DHT22;26461;45.630;9.418;2024-01-15T13:28:21;8.20;75.40
40756;DHT22;26461;45.630;9.418;2024-01-15T13:31:32;8.30;75.20
40756;DHT22;26461;45.630;9.418;2024-01-15T13:34:42;8.30;74.60
40756;DHT22;26461;45.630;9.418;2024-01-15T13:37:48;8.40;74.00
40756;DHT22;26461;45.630;9.418;2024-01-15T13:40:58;8.50;73.90
40756;DHT22;26461;45.630;9.418;2024-01-15T13:44:03;8.50;73.60
40756;DHT22;26461;45.630;9.418;2024-01-15T13:47:14;8.60;73.40
40756;DHT22;26461;45.630;9.418;2024-01-15T13:50:24;8.70;73.20
40756;DHT22;26461;45.630;9.418;2024-01-15T13:53:30;8.80;72.80
40756;DHT22;26461;45.630;9.418;2024-01-15T13:56:40;8.90;73.00
40756;DHT22;26461;45.630;9.418;2024-01-15T13:59:46;9.00;72.50
40756;DHT22;26461;45.630;9.418;2024-01-15T14:02:56;9.10;72.10
40756;DHT22;26461;45.630;9.418;2024-01-15T14:06:02;9.10;71.50
40756;DHT22;26461;45.630;9.418;2024-01-15T14:09:14;9.20;71.10
40756;DHT22;26461;45.630;9.418;2024-01-15T14:12:24;9.30;70.70
40756;DHT22;26461;45.630;9.418;2024-01-15T14:15:36;9.30;70.30
40756;DHT22;26461;45.630;9.418;2024-01-15T14:18:42;9.40;70.00
40756;DHT22;26461;45.630;9.418;2024-01-15T14:21:52;9.40;69.80
40756;DHT22;26461;45.630;9.418;2024-01-15T14:25:07;9.50;69.60
40756;DHT22;26461;45.630;9.418;2024-01-15T14:28:17;9.60;68.90
40756;DHT22;26461;45.630;9.418;2024-01-15T14:31:28;9.60;68.80
40756;DHT22;26461;45.630;9.418;2024-01-15T14:34:38;9.70;68.50
40756;DHT22;26461;45.630;9.418;2024-01-15T14:37:44;9.70;68.20
40756;DHT22;26461;45.630;9.418;2024-01-15T14:40:49;9.80;68.00
40756;DHT22;26461;45.630;9.418;2024-01-15T14:43:54;9.80;67.70
40756;DHT22;26461;45.630;9.418;2024-01-15T14:47:05;9.90;66.90
40756;DHT22;26461;45.630;9.418;2024-01-15T14:50:11;9.90;66.80
40756;DHT22;26461;45.630;9.418;2024-01-15T14:53:17;10.00;66.80
40756;DHT22;26461;45.630;9.418;2024-01-15T14:56:27;9.90;66.60
40756;DHT22;26461;45.630;9.418;2024-01-15T14:59:37;10.00;66.70
40756;DHT22;26461;45.630;9.418;2024-01-15T15:02:48;10.00;66.40
40756;DHT22;26461;45.630;9.418;2024-01-15T15:05:54;10.10;66.40
40756;DHT22;26461;45.630;9.418;2024-01-15T15:09:04;10.10;66.20
40756;DHT22;26461;45.630;9.418;2024-01-15T15:12:19;10.10;65.90
40756;DHT22;26461;45.630;9.418;2024-01-15T15:15:30;10.10;65.90
40756;DHT22;26461;45.630;9.418;2024-01-15T15:18:41;10.10;65.90
40756;DHT22;26461;45.630;9.418;2024-01-15T15:21:54;10.10;65.80
40756;DHT22;26461;45.630;9.418;2024-01-15T15:25:05;10.20;65.80
40756;DHT22;26461;45.630;9.418;2024-01-15T15:28:13;10.20;65.70
40756;DHT22;26461;45.630;9.418;2024-01-15T15:31:26;10.20;65.80
40756;DHT22;26461;45.630;9.418;2024-01-15T15:34:36;10.20;65.80
40756;DHT22;26461;45.630;9.418;2024-01-15T15:37:42;10.20;65.60
40756;DHT22;26461;45.630;9.418;2024-01-15T15:40:52;10.20;65.50
40756;DHT22;26461;45.630;9.418;2024-01-15T15:43:57;10.10;65.40
40756;DHT22;26461;45.630;9.418;2024-01-15T15:47:03;10.10;65.70
40756;DHT22;26461;45.630;9.418;2024-01-15T15:50:13;10.00;65.90
40756;DHT22;26461;45.630;9.418;2024-01-15T15:53:24;10.00;65.90
40756;DHT22;26461;45.630;9.418;2024-01-15T15:56:34;9.90;65.80
40756;DHT22;26461;45.630;9.418;2024-01-15T15:59:43;9.90;65.80
40756;DHT22;26461;45.630;9.418;2024-01-15T16:02:49;9.80;66.10
40756;DHT22;26461;45.630;9.418;2024-01-15T16:05:54;9.80;66.10
40756;DHT22;26461;45.630;9.418;2024-01-15T16:09:04;9.70;66.00
40756;DHT22;26461;45.630;9.418;2024-01-15T16:12:10;9.60;65.60
40756;DHT22;26461;45.630;9.418;2024-01-15T16:15:20;9.50;65.60
40756;DHT22;26461;45.630;9.418;2024-01-15T16:18:31;9.40;66.10
40756;DHT22;26461;45.630;9.418;2024-01-15T16:21:36;9.30;66.40
40756;DHT22;26461;45.630;9.418;2024-01-15T16:24:47;9.30;66.60
40756;DHT22;26461;45.630;9.418;2024-01-15T16:27:57;9.20;66.30
40756;DHT22;26461;45.630;9.418;2024-01-15T16:31:08;9.10;66.50
40756;DHT22;26461;45.630;9.418;2024-01-15T16:34:19;9.00;66.80
40756;DHT22;26461;45.630;9.418;2024-01-15T16:37:32;8.90;66.90
40756;DHT22;26461;45.630;9.418;2024-01-15T16:40:40;8.90;67.40
40756;DHT22;26461;45.630;9.418;2024-01-15T16:43:48;8.70;67.70
40756;DHT22;26461;45.630;9.418;2024-01-15T16:46:54;8.60;67.90
40756;DHT22;26461;45.630;9.418;2024-01-15T16:50:04;8.60;68.20
40756;DHT22;26461;45.630;9.418;2024-01-15T16:53:10;8.50;69.20
40756;DHT22;26461;45.630;9.418;2024-01-15T16:56:22;8.50;68.60
40756;DHT22;26461;45.630;9.418;2024-01-15T16:59:27;8.40;68.90
40756;DHT22;26461;45.630;9.418;2024-01-15T17:02:42;8.30;69.20
40756;DHT22;26461;45.630;9.418;2024-01-15T17:05:53;8.30;69.50
40756;DHT22;26461;45.630;9.418;2024-01-15T17:09:04;8.30;69.80
40756;DHT22;26461;45.630;9.418;2024-01-15T17:12:10;8.20;69.90
40756;DHT22;26461;45.630;9.418;2024-01-15T17:15:20;8.20;70.20
40756;DHT22;26461;45.630;9.418;2024-01-15T17:18:26;8.20;70.40
40756;DHT22;26461;45.630;9.418;2024-01-15T17:21:31;8.10;70.60
40756;DHT22;26461;45.630;9.418;2024-01-15T17:24:44;8.10;70.80
40756;DHT22;26461;45.630;9.418;2024-01-15T17:27:50;8.10;71.00
40756;DHT22;26461;45.630;9.418;2024-01-15T17:31:00;8.00;71.00
40756;DHT22;26461;45.630;9.418;2024-01-15T17:34:11;8.00;71.10
40756;DHT22;26461;45.630;9.418;2024-01-15T17:37:16;8.00;71.30
40756;DHT22;26461;45.630;9.418;2024-01-15T17:40:26;7.90;71.50
40756;DHT22;26461;45.630;9.418;2024-01-15T17:43:37;7.90;71.50
40756;DHT22;26461;45.630;9.418;2024-01-15T17:46:49;7.90;71.70
40756;DHT22;26461;45.630;9.418;2024-01-15T17:50:00;7.80;71.90
40756;DHT22;26461;45.630;9.418;2024-01-15T17:53:05;7.80;72.20
40756;DHT22;26461;45.630;9.418;2024-01-15T17:56:16;7.80;72.20
40756;DHT22;26461;45.630;9.418;2024-01-15T17:59:26;7.70;72.30
40756;DHT22;26461;45.630;9.418;2024-01-15T18:02:38;7.70;72.60
40756;DHT22;26461;45.630;9.418;2024-01-15T18:05:48;7.60;72.80
40756;DHT22;26461;45.630;9.418;2024-01-15T18:08:59;7.50;72.80
40756;DHT22;26461;45.630;9.418;2024-01-15T18:12:04;7.50;73.10
40756;DHT22;26461;45.630;9.418;2024-01-15T18:15:15;7.50;73.20
40756;DHT22;26461;45.630;9.418;2024-01-15T18:18:27;7.40;73.20
40756;DHT22;26461;45.630;9.418;2024-01-15T18:21:32;7.40;73.30
40756;DHT22;26461;45.630;9.418;2024-01-15T18:24:42;7.40;73.40
40756;DHT22;26461;45.630;9.418;2024-01-15T18:27:53;7.40;73.40
40756;DHT22;26461;45.630;9.418;2024-01-15T18:31:04;7.30;73.50
40756;DHT22;26461;45.630;9.418;2024-01-15T18:34:14;7.30;73.70
40756;DHT22;26461;45.630;9.418;2024-01-15T18:37:25;7.20;73.60
40756;DHT22;26461;45.630;9.418;2024-01-15T18:40:37;7.20;73.80
40756;DHT22;26461;45.630;9.418;2024-01-15T18:43:48;7.20;74.00
40756;DHT22;26461;45.630;9.418;2024-01-15T18:46:58;7.20;74.10
40756;DHT22;26461;45.630;9.418;2024-01-15T18:50:08;7.10;74.40
40756;DHT22;26461;45.630;9.418;2024-01-15T18:53:14;7.10;74.60
40756;DHT22;26461;45.630;9.418;2024-01-15T18:56:19;7.10;74.90
40756;DHT22;26461;45.630;9.418;2024-01-15T18:59:30;7.00;74.80
40756;DHT22;26461;45.630;9.418;2024-01-15T19:02:41;7.00;75.00
40756;DHT22;26461;45.630;9.418;2024-01-15T19:05:47;7.00;74.90
40756;DHT22;26461;45.630;9.418;2024-01-15T19:08:57;6.90;74.60
40756;DHT22;26461;45.630;9.418;2024-01-15T19:12:07;6.80;74.90
40756;DHT22;26461;45.630;9.418;2024-01-15T19:15:17;6.90;75.20
40756;DHT22;26461;45.630;9.418;2024-01-15T19:18:28;6.90;75.20
40756;DHT22;26461;45.630;9.418;2024-01-15T19:21:33;6.90;74.00
40756;DHT22;26461;45.630;9.418;2024-01-15T19:24:44;6.80;74.00
40756;DHT22;26461;45.630;9.418;2024-01-15T19:27:50;6.80;75.00
40756;DHT22;26461;45.630;9.418;2024-01-15T19:31:01;6.60;73.80
40756;DHT22;26461;45.630;9.418;2024-01-15T19:34:12;6.60;73.60
40756;DHT22;26461;45.630;9.418;2024-01-15T19:37:22;6.50;73.70
40756;DHT22;26461;45.630;9.418;2024-01-15T19:40:33;6.40;73.80
40756;DHT22;26461;45.630;9.418;2024-01-15T19:43:44;6.40;73.90
40756;DHT22;26461;45.630;9.418;2024-01-15T19:46:54;6.30;74.10
40756;DHT22;26461;45.630;9.418;2024-01-15T19:50:05;6.30;74.20
40756;DHT22;26461;45.630;9.418;2024-01-15T19:53:15;6.30;74.50
40756;DHT22;26461;45.630;9.418;2024-01-15T19:56:25;6.30;75.20
40756;DHT22;26461;45.630;9.418;2024-01-15T19:59:31;6.30;75.90
40756;DHT22;26461;45.630;9.418;2024-01-15T20:02:37;6.30;75.90
40756;DHT22;26461;45.630;9.418;2024-01-15T20:05:47;6.30;75.80
40756;DHT22;26461;45.630;9.418;2024-01-15T20:08:57;6.20;76.00
40756;DHT22;26461;45.630;9.418;2024-01-15T20:12:04;6.20;75.50
40756;DHT22;26461;45.630;9.418;2024-01-15T20:15:15;6.10;75.20
40756;DHT22;26461;45.630;9.418;2024-01-15T20:18:20;6.00;75.30